Time;durP1;ratioP1;P1;durP2;ratioP2;P2;SDS_P1;SDS_P2;PMS_P1;PMS_P2;Temp;Humidity;BMP_temperature;BMP_pressure;BME280_temperature;BME280_humidity;BME280_pressure;Samples;Min_cycle;Max_cycle;Signal;HPM_P1;HPM_P2
2021/11/14 00:00:37;;;;;;;4.77;3.40;;;;;;;3.34;75.81;102620.66;4810310;29;20302;-72
2021/11/14 00:03:03;;;;;;;4.97;3.47;;;;;;;3.32;76.28;102600.56;4809268;29;20061;-72
2021/11/14 00:05:29;;;;;;;4.40;3.77;;;;;;;3.32;75.85;102611.13;4808800;29;20748;-73
2021/11/14 00:07:54;;;;;;;5.37;3.10;;;;;;;3.41;75.73;102615.94;4809111;29;20042;-74
2021/11/14 00:10:20;;;;;;;4.97;3.33;;;;;;;3.47;75.99;102617.44;4793060;29;20135;-74
2021/11/14 00:12:46;;;;;;;4.00;3.50;;;;;;;3.45;75.74;102611.38;4809892;29;20050;-73
2021/11/14 00:15:12;;;;;;;4.13;3.50;;;;;;;3.48;75.90;102606.84;4815908;29;20038;-72
2021/11/14 00:17:38;;;;;;;3.80;3.37;;;;;;;3.59;76.26;102606.34;4815026;29;20049;-72
2021/11/14 00:20:07;;;;;;;5.87;3.93;;;;;;;3.57;75.86;102610.84;4808350;29;20062;-73
2021/11/14 00:22:33;;;;;;;6.45;3.80;;;;;;;3.50;76.64;102614.69;4808176;29;20280;-74
2021/11/14 00:25:00;;;;;;;6.30;4.33;;;;;;;3.39;77.24;102597.59;4807899;29;20559;-73
2021/11/14 00:27:28;;;;;;;7.47;4.93;;;;;;;3.32;76.96;102611.13;4807442;29;20067;-74
2021/11/14 00:29:53;;;;;;;5.63;4.13;;;;;;;3.25;77.44;102604.44;4807176;29;20370;-73
2021/11/14 00:32:19;;;;;;;5.03;4.37;;;;;;;3.19;77.69;102591.56;4791438;29;20308;-72
2021/11/14 00:34:48;;;;;;;6.00;4.43;;;;;;;3.32;78.23;102600.56;4807558;29;20148;-73
2021/11/14 00:37:13;;;;;;;5.75;4.80;;;;;;;3.24;78.10;102582.50;4807264;29;20043;-73
2021/11/14 00:39:39;;;;;;;6.60;4.30;;;;;;;3.31;77.86;102605.00;4807125;29;20130;-71
2021/11/14 00:42:04;;;;;;;5.53;4.43;;;;;;;3.31;78.24;102604.13;4807281;29;20074;-72
2021/11/14 00:44:30;;;;;;;4.67;4.00;;;;;;;3.19;77.94;102588.91;4807229;29;20564;-73
2021/11/14 00:46:56;;;;;;;5.60;5.03;;;;;;;3.22;78.65;102604.56;4807651;29;20086;-75
2021/11/14 00:49:22;;;;;;;6.30;3.97;;;;;;;3.25;78.58;102593.91;4791008;29;20051;-73
2021/11/14 00:51:48;;;;;;;6.93;4.50;;;;;;;3.20;78.93;102596.75;4790886;29;20046;-73
2021/11/14 00:54:14;;;;;;;5.43;4.57;;;;;;;3.28;78.99;102599.88;4807204;29;20034;-74
2021/11/14 00:56:40;;;;;;;5.73;4.20;;;;;;;3.21;78.52;102577.38;4790697;29;20054;-74
2021/11/14 00:59:06;;;;;;;13.73;5.17;;;;;;;3.28;78.48;102584.06;4807155;29;20276;-72
2021/11/14 01:01:32;;;;;;;6.17;4.53;;;;;;;3.35;78.39;102598.66;4807731;29;20260;-74
2021/11/14 01:03:58;;;;;;;4.67;4.20;;;;;;;3.32;78.69;102590.91;4807965;29;20062;-74
2021/11/14 01:06:23;;;;;;;6.30;4.67;;;;;;;3.26;78.66;102588.56;4807921;29;20038;-74
2021/11/14 01:08:49;;;;;;;5.23;4.10;;;;;;;3.30;78.85;102598.03;4791949;29;20718;-73
2021/11/14 01:11:15;;;;;;;5.77;3.87;;;;;;;3.22;78.88;102581.72;4791159;29;20558;-74
2021/11/14 01:13:41;;;;;;;6.63;4.40;;;;;;;3.27;78.93;102592.03;4807502;29;20045;-71
2021/11/14 01:16:16;;;;;;;7.67;4.43;;;;;;;3.30;79.34;102582.22;4807603;29;20652;-71
2021/11/14 01:18:42;;;;;;;5.47;4.40;;;;;;;3.33;79.48;102582.06;4807474;29;20385;-72
2021/11/14 01:21:12;;;;;;;5.40;3.97;;;;;;;3.26;79.51;102572.75;4791009;29;20828;-74
2021/11/14 01:23:38;;;;;;;4.00;3.53;;;;;;;3.20;80.17;102573.03;4791686;29;20048;-72
2021/11/14 01:26:04;;;;;;;4.60;3.30;;;;;;;3.14;79.93;102564.56;4807011;29;20337;-74
2021/11/14 01:31:22;;;;;;;5.13;3.43;;;;;;;3.20;80.05;102569.56;4807779;29;20042;-73
2021/11/14 01:33:47;;;;;;;3.10;2.80;;;;;;;3.29;80.33;102591.03;4806829;29;20331;-74
2021/11/14 01:36:13;;;;;;;3.73;2.47;;;;;;;3.26;80.10;102585.94;4806384;29;20762;-73
2021/11/14 01:38:38;;;;;;;3.73;3.10;;;;;;;3.17;79.98;102580.22;4806026;29;20050;-72
2021/11/14 01:41:07;;;;;;;2.87;2.30;;;;;;;3.22;80.32;102588.78;4806364;29;20541;-73
2021/11/14 01:43:37;;;;;;;4.75;3.22;;;;;;;3.29;81.03;102583.16;4805596;29;20140;-72
2021/11/14 01:46:04;;;;;;;3.20;2.83;;;;;;;3.29;80.67;102579.66;4806187;29;20089;-73
2021/11/14 01:48:30;;;;;;;3.93;2.83;;;;;;;3.33;80.51;102587.34;4805853;29;20305;-74
2021/11/14 01:50:56;;;;;;;3.90;2.80;;;;;;;3.26;80.38;102575.38;4790410;29;20333;-72
2021/11/14 01:53:24;;;;;;;4.53;3.30;;;;;;;3.32;80.84;102584.78;4807156;29;20280;-72
2021/11/14 01:55:51;;;;;;;4.88;3.38;;;;;;;3.33;80.65;102589.97;4806750;29;20706;-72
2021/11/14 01:58:20;;;;;;;4.70;3.40;;;;;;;3.34;80.25;102582.94;4806709;29;20050;-71
2021/11/14 02:00:55;;;;;;;5.07;4.27;;;;;;;3.38;79.93;102595.88;4790420;29;20268;-72
2021/11/14 02:03:23;;;;;;;4.03;3.50;;;;;;;3.31;80.38;102583.06;4807003;29;20269;-73
2021/11/14 02:05:48;;;;;;;4.50;3.90;;;;;;;3.33;80.52;102568.06;4809418;29;21274;-71
2021/11/14 02:08:14;;;;;;;4.47;3.27;;;;;;;3.41;78.92;102585.19;4809021;29;20357;-72
2021/11/14 02:10:43;;;;;;;7.00;3.10;;;;;;;3.40;78.37;102588.75;4793918;29;20126;-73
2021/11/14 02:13:09;;;;;;;;;;;;;;;3.38;75.73;102585.34;4805115;29;20276;-73
2021/11/14 02:15:36;;;;;;;2.60;2.20;;;;;;;3.24;75.03;102577.25;4803521;29;19984;-72
2021/11/14 02:18:03;;;;;;;3.53;1.90;;;;;;;3.19;73.70;102587.13;4809034;29;20082;-73
2021/11/14 02:20:28;;;;;;;2.13;1.90;;;;;;;3.11;72.52;102582.19;4806029;29;20338;-72
2021/11/14 02:22:54;;;;;;;3.87;1.70;;;;;;;3.13;71.83;102590.03;4805651;29;20277;-74
2021/11/14 02:25:22;;;;;;;2.47;1.50;;;;;;;3.10;71.25;102604.19;4805825;29;20058;-75
2021/11/14 02:27:52;;;;;;;3.13;1.63;;;;;;;3.08;71.48;102592.03;4805167;29;20322;-73
2021/11/14 02:30:18;;;;;;;1.40;1.20;;;;;;;3.07;71.05;102595.56;4805977;29;20319;-74
2021/11/14 02:32:44;;;;;;;1.53;1.43;;;;;;;3.01;70.72;102588.81;4806489;29;20417;-74
2021/11/14 02:35:11;;;;;;;2.93;1.73;;;;;;;3.06;70.11;102597.34;4805871;29;20703;-73
2021/11/14 02:37:37;;;;;;;1.57;1.47;;;;;;;2.86;70.35;102572.84;4805353;29;20658;-75
2021/11/14 02:40:05;;;;;;;1.53;1.20;;;;;;;3.01;69.07;102595.88;4805809;29;20273;-74
2021/11/14 02:42:31;;;;;;;1.95;1.60;;;;;;;2.99;69.55;102598.56;4806991;29;20101;-75
2021/11/14 02:44:56;;;;;;;2.17;1.90;;;;;;;2.89;69.53;102586.75;4806071;29;20559;-73
2021/11/14 02:47:22;;;;;;;2.70;1.60;;;;;;;2.91;69.69;102578.78;4789143;29;20050;-77
2021/11/14 02:49:47;;;;;;;3.40;1.90;;;;;;;2.96;70.27;102584.69;4805996;29;20046;-75
2021/11/14 02:52:13;;;;;;;4.03;1.80;;;;;;;2.91;70.61;102582.28;4815347;29;20112;-72
2021/11/14 02:54:40;;;;;;;4.10;2.37;;;;;;;2.96;71.56;102598.69;4815313;29;20042;-72
2021/11/14 02:57:06;;;;;;;2.50;1.50;;;;;;;2.94;71.55;102594.44;4811579;29;20091;-73
2021/11/14 02:59:33;;;;;;;1.97;1.87;;;;;;;2.94;71.25;102589.16;4808848;29;20272;-71
2021/11/14 03:01:59;;;;;;;1.97;1.73;;;;;;;2.93;71.07;102590.09;4792896;29;20284;-72
2021/11/14 03:04:28;;;;;;;2.20;1.83;;;;;;;3.00;71.82;102602.91;4808794;29;20316;-72
2021/11/14 03:06:55;;;;;;;4.10;2.00;;;;;;;2.97;71.60;102589.03;4792688;29;20368;-73
2021/11/14 03:09:21;;;;;;;3.17;2.20;;;;;;;2.96;71.97;102597.84;4809426;29;20055;-72
2021/11/14 03:11:47;;;;;;;4.13;2.00;;;;;;;2.98;71.66;102607.38;4810265;29;20284;-70
2021/11/14 03:14:31;;;;;;;3.23;2.40;;;;;;;3.00;71.57;102600.28;4809830;29;20270;-71
2021/11/14 03:16:57;;;;;;;2.33;1.90;;;;;;;3.00;71.39;102600.28;4793088;29;20280;-72
2021/11/14 03:19:23;;;;;;;5.20;2.67;;;;;;;3.11;71.26;102620.84;4792559;29;20070;-72
2021/11/14 03:21:49;;;;;;;4.83;2.87;;;;;;;3.10;71.48;102625.25;4808952;29;20443;-73
2021/11/14 03:24:15;;;;;;;2.23;2.00;;;;;;;3.05;71.49;102600.06;4809484;29;20129;-72
2021/11/14 03:26:43;;;;;;;3.27;2.20;;;;;;;2.83;71.34;102565.09;4808420;29;20046;-72
2021/11/14 03:29:09;;;;;;;4.27;2.20;;;;;;;3.06;71.41;102617.56;4791944;29;20312;-72
2021/11/14 03:31:35;;;;;;;3.93;2.23;;;;;;;3.01;71.24;102614.28;4808696;29;20299;-73
2021/11/14 03:34:01;;;;;;;4.37;2.53;;;;;;;2.99;71.95;102597.72;4808255;29;20046;-72
2021/11/14 03:36:28;;;;;;;3.13;2.83;;;;;;;3.09;71.76;102620.06;4808118;29;20756;-73
2021/11/14 03:38:56;;;;;;;4.67;2.37;;;;;;;3.03;72.25;102605.41;4808159;29;20041;-74
2021/11/14 03:41:26;;;;;;;4.28;2.70;;;;;;;3.05;71.69;102613.22;4808054;29;20325;-74
2021/11/14 03:43:52;;;;;;;7.93;3.37;;;;;;;3.07;71.57;102622.75;4807996;29;20068;-72
2021/11/14 03:46:18;;;;;;;4.13;2.60;;;;;;;3.06;71.78;102615.78;4792644;29;20370;-73
2021/11/14 03:48:48;;;;;;;3.87;2.67;;;;;;;3.04;71.88;102617.63;4808460;29;20369;-77
2021/11/14 03:51:16;;;;;;;3.00;2.70;;;;;;;2.93;71.94;102595.38;4808252;29;20288;-72
2021/11/14 03:53:42;;;;;;;4.33;2.93;;;;;;;2.97;71.71;102602.19;4791431;29;20753;-71
2021/11/14 03:56:09;;;;;;;6.37;3.17;;;;;;;3.06;72.11;102614.94;4791222;29;20784;-69
2021/11/14 03:58:35;;;;;;;4.67;3.43;;;;;;;2.96;72.16;102587.31;4807778;29;20310;-70
2021/11/14 04:01:05;;;;;;;5.03;2.33;;;;;;;3.05;72.11;102605.31;4807960;29;20280;-70
2021/11/14 04:03:32;;;;;;;3.47;2.73;;;;;;;2.95;71.78;102588.25;4807703;29;20849;-68
2021/11/14 04:05:57;;;;;;;4.60;3.17;;;;;;;3.02;71.99;102614.22;4807590;29;20758;-71
2021/11/14 04:08:25;;;;;;;3.83;2.30;;;;;;;2.95;72.85;102593.50;4790538;29;20388;-70
2021/11/14 04:10:53;;;;;;;3.83;2.73;;;;;;;3.01;72.50;102614.28;4807250;29;20512;-70
2021/11/14 04:13:19;;;;;;;5.93;2.40;;;;;;;3.00;72.66;102618.69;4791427;29;20268;-73
2021/11/14 04:15:46;;;;;;;4.07;1.63;;;;;;;3.03;72.71;102609.81;4807606;29;20442;-68
2021/11/14 04:18:12;;;;;;;2.00;1.87;;;;;;;3.06;72.41;102621.03;4790820;29;20672;-69
2021/11/14 04:20:41;;;;;;;2.70;1.77;;;;;;;3.09;72.46;102609.53;4807035;29;20276;-70
2021/11/14 04:23:08;;;;;;;2.92;1.88;;;;;;;3.07;73.05;102601.69;4807424;29;20295;-68
2021/11/14 04:25:34;;;;;;;3.60;1.63;;;;;;;3.05;73.18;102597.44;4807535;29;20042;-71
2021/11/14 04:28:06;;;;;;;4.00;1.93;;;;;;;3.17;73.51;102617.91;4791223;29;20855;-69
2021/11/14 04:30:34;;;;;;;5.03;3.27;;;;;;;3.12;73.89;102604.13;4791094;29;20300;-72
2021/11/14 04:32:59;;;;;;;2.57;2.20;;;;;;;3.08;73.68;102600.78;4807418;29;20272;-73
2021/11/14 04:35:25;;;;;;;4.77;1.67;;;;;;;3.13;74.14;102608.47;4807147;29;20097;-72
2021/11/14 04:37:51;;;;;;;4.00;2.10;;;;;;;3.19;74.09;102605.56;4790800;29;20078;-69
2021/11/14 04:40:24;;;;;;;3.40;2.03;;;;;;;3.21;73.70;102605.50;4776472;29;20552;-71
2021/11/14 04:42:49;;;;;;;2.40;1.80;;;;;;;3.17;74.42;102602.13;4791218;29;20276;-71
2021/11/14 04:45:15;;;;;;;2.13;1.70;;;;;;;3.12;74.40;102593.59;4807305;29;20300;-71
2021/11/14 04:47:41;;;;;;;5.33;1.97;;;;;;;3.04;75.08;102593.09;4807280;29;20111;-72
2021/11/14 04:50:10;;;;;;;3.77;2.17;;;;;;;3.07;74.88;102601.69;4806737;29;20055;-74
2021/11/14 04:52:36;;;;;;;2.95;2.08;;;;;;;3.08;75.27;102597.28;4806653;29;20272;-73
2021/11/14 04:55:03;;;;;;;2.03;1.53;;;;;;;3.07;75.26;102590.31;4806939;29;20092;-70
2021/11/14 04:57:29;;;;;;;4.63;1.90;;;;;;;3.14;75.01;102606.69;4806742;29;20280;-70
2021/11/14 04:59:54;;;;;;;2.83;1.80;;;;;;;3.03;74.92;102594.00;4807130;29;20287;-73
2021/11/14 05:02:20;;;;;;;4.73;2.30;;;;;;;3.11;75.52;102607.66;4806871;29;20046;-73
2021/11/14 05:04:45;;;;;;;2.87;1.83;;;;;;;3.12;75.61;102604.13;4775346;29;20479;-75
2021/11/14 05:07:11;;;;;;;6.93;2.67;;;;;;;2.89;75.94;102578.84;4790463;29;20066;-76
2021/11/14 05:09:37;;;;;;;3.60;2.17;;;;;;;3.05;75.56;102602.69;4806988;29;20053;-75
2021/11/14 05:12:04;;;;;;;2.37;2.17;;;;;;;3.17;75.13;102614.44;4790709;29;20104;-72
2021/11/14 05:14:30;;;;;;;4.60;2.40;;;;;;;3.15;75.56;102609.25;4806640;29;20031;-73
2021/11/14 05:16:56;;;;;;;5.30;2.37;;;;;;;3.16;76.82;102610.94;4806715;29;20268;-72
2021/11/14 05:19:21;;;;;;;2.00;1.83;;;;;;;3.06;77.25;102588.59;4805463;29;20668;-70
2021/11/14 05:21:47;;;;;;;2.80;1.97;;;;;;;3.06;77.45;102604.41;4805402;29;20173;-69
2021/11/14 05:24:13;;;;;;;3.30;2.73;;;;;;;3.20;77.30;102617.81;4806418;29;20129;-72
2021/11/14 05:26:45;;;;;;;3.30;3.00;;;;;;;3.24;77.33;102618.53;4789760;29;20043;-72
2021/11/14 05:29:11;;;;;;;2.43;2.23;;;;;;;3.18;77.53;102609.13;4806296;29;20555;-74
2021/11/14 05:31:37;;;;;;;5.20;2.40;;;;;;;3.23;77.70;102622.94;4806345;29;20323;-75
2021/11/14 05:34:02;;;;;;;2.50;2.07;;;;;;;3.18;78.03;102618.78;4788935;29;20042;-69
2021/11/14 05:36:28;;;;;;;4.60;2.40;;;;;;;3.05;77.89;102613.22;4805333;29;20038;-68
2021/11/14 05:38:54;;;;;;;3.60;2.40;;;;;;;2.89;78.67;102591.13;4805684;29;20077;-63
2021/11/14 05:41:19;;;;;;;5.73;2.63;;;;;;;3.01;78.54;102622.19;4805493;29;20034;-64
2021/11/14 05:43:45;;;;;;;4.40;2.70;;;;;;;2.99;78.67;102624.03;4805365;29;20088;-66
2021/11/14 05:46:12;;;;;;;4.73;2.97;;;;;;;2.94;78.73;102610.22;4805063;29;20130;-70
2021/11/14 05:48:38;;;;;;;6.27;2.90;;;;;;;2.61;78.02;102552.91;4805354;29;20296;-68
2021/11/14 05:51:04;;;;;;;4.07;2.30;;;;;;;3.02;78.39;102623.88;4805636;29;20288;-67
2021/11/14 05:53:29;;;;;;;9.80;3.13;;;;;;;3.06;78.51;102625.47;4805547;29;20279;-65
2021/11/14 05:55:56;;;;;;;5.60;2.83;;;;;;;2.90;79.12;102598.13;4805861;29;20042;-69
2021/11/14 05:58:29;;;;;;;5.53;3.17;;;;;;;2.97;79.29;102633.78;4805821;29;20053;-65
2021/11/14 06:01:07;;;;;;;5.53;2.67;;;;;;;2.99;79.63;102645.09;4805637;29;20287;-66
2021/11/14 06:06:05;;;;;;;4.47;3.20;;;;;;;2.89;80.36;102644.66;4805882;29;20308;-72
2021/11/14 06:08:31;;;;;;;5.27;2.70;;;;;;;2.70;80.19;102623.53;4805476;29;20454;-68
2021/11/14 06:10:57;;;;;;;4.00;3.40;;;;;;;2.79;80.64;102627.53;4805777;29;20366;-73
2021/11/14 06:13:25;;;;;;;8.03;3.30;;;;;;;2.89;80.60;102642.03;4805675;29;20475;-68
2021/11/14 06:15:51;;;;;;;6.03;3.50;;;;;;;3.02;80.73;102658.09;4805556;29;20691;-65
2021/11/14 06:18:16;;;;;;;5.13;4.63;;;;;;;3.07;80.24;102651.72;4805586;29;20268;-66
2021/11/14 06:20:43;;;;;;;4.40;3.07;;;;;;;3.08;78.38;102653.41;4805757;29;20047;-67
2021/11/14 06:23:09;;;;;;;4.77;4.27;;;;;;;3.00;76.91;102671.34;4805510;29;20114;-65
2021/11/14 06:25:35;;;;;;;3.20;2.50;;;;;;;2.96;76.26;102676.81;4805366;29;20318;-73
2021/11/14 06:28:02;;;;;;;4.87;2.50;;;;;;;2.92;75.89;102680.50;4805267;29;20340;-72
2021/11/14 06:30:28;;;;;;;4.27;2.30;;;;;;;2.59;73.97;102631.00;4774476;29;20533;-68
2021/11/14 06:32:54;;;;;;;6.17;3.47;;;;;;;2.84;74.12;102666.78;4806618;29;20276;-67
2021/11/14 06:35:20;;;;;;;5.33;2.73;;;;;;;2.93;74.03;102666.41;4807209;29;20096;-67
2021/11/14 06:37:45;;;;;;;7.53;2.23;;;;;;;2.89;72.41;102675.34;4806190;29;20045;-66
2021/11/14 06:40:12;;;;;;;5.53;2.27;;;;;;;2.84;71.81;102679.94;4805792;29;20584;-64
2021/11/14 06:42:37;;;;;;;5.77;2.90;;;;;;;2.78;72.55;102674.03;4789041;29;20039;-68
2021/11/14 06:45:05;;;;;;;3.90;2.30;;;;;;;2.78;72.65;102679.31;4805504;29;20629;-70
2021/11/14 06:47:30;;;;;;;5.90;2.80;;;;;;;2.67;72.22;102676.28;4805385;29;20039;-64
2021/11/14 06:49:56;;;;;;;5.53;2.30;;;;;;;2.52;71.96;102676.91;4805991;29;20399;-70
2021/11/14 06:52:22;;;;;;;4.00;2.40;;;;;;;2.45;72.24;102678.09;4773933;29;20039;-70
2021/11/14 06:54:50;;;;;;;5.80;2.40;;;;;;;2.43;72.67;102677.31;4804961;29;20045;-66
2021/11/14 06:57:15;;;;;;;5.23;2.40;;;;;;;2.33;72.42;102675.97;4804795;29;20276;-70
2021/11/14 06:59:41;;;;;;;4.73;2.67;;;;;;;2.16;73.02;102672.25;4804665;29;20276;-69
2021/11/14 07:02:07;;;;;;;4.47;2.30;;;;;;;2.26;72.86;102695.53;4805032;29;20046;-63
2021/11/14 07:04:34;;;;;;;5.90;3.43;;;;;;;2.21;73.12;102702.75;4804821;29;20042;-70
2021/11/14 07:07:00;;;;;;;5.57;3.20;;;;;;;2.33;72.93;102707.53;4789628;29;20299;-63
2021/11/14 07:09:25;;;;;;;7.20;3.50;;;;;;;2.29;72.81;102700.66;4804516;29;20292;-66
2021/11/14 07:11:53;;;;;;;4.30;3.23;;;;;;;2.13;72.94;102689.91;4788252;29;20049;-68
2021/11/14 07:14:19;;;;;;;4.28;3.05;;;;;;;2.05;73.00;102692.00;4804445;29;20133;-67
2021/11/14 07:16:45;;;;;;;5.23;3.27;;;;;;;1.89;73.71;102694.38;4804698;29;20445;-60
2021/11/14 07:19:10;;;;;;;4.50;3.00;;;;;;;1.83;74.40;102700.72;4804579;29;20370;-65
2021/11/14 07:21:36;;;;;;;4.90;3.27;;;;;;;1.72;74.48;102695.00;4804723;29;20074;-64
2021/11/14 07:24:01;;;;;;;6.40;3.87;;;;;;;1.57;74.77;102678.97;4804737;29;20076;-70
2021/11/14 07:26:27;;;;;;;6.33;4.37;;;;;;;1.66;74.88;102689.97;4789126;29;20095;-68
2021/11/14 07:28:54;;;;;;;5.57;3.20;;;;;;;1.76;74.21;102706.28;4805536;29;20065;-68
2021/11/14 07:31:20;;;;;;;6.53;2.80;;;;;;;1.81;74.08;102709.56;4806703;29;20043;-65
2021/11/14 07:33:45;;;;;;;5.87;3.47;;;;;;;1.85;74.03;102690.16;4789126;29;20291;-71
2021/11/14 07:36:11;;;;;;;6.67;3.10;;;;;;;1.95;73.92;102698.53;4804886;29;20059;-67
2021/11/14 07:38:36;;;;;;;3.80;2.60;;;;;;;1.89;73.65;102701.41;4806402;29;20133;-68
2021/11/14 07:41:02;;;;;;;4.57;2.57;;;;;;;1.82;73.44;102691.13;4805893;29;20050;-69
2021/11/14 07:43:28;;;;;;;6.70;2.80;;;;;;;1.90;73.15;102716.25;4808631;29;20125;-72
2021/11/14 07:45:54;;;;;;;9.07;3.50;;;;;;;1.82;73.58;102703.41;4809049;29;20103;-70
2021/11/14 07:48:19;;;;;;;7.80;3.20;;;;;;;1.72;73.49;102688.88;4809883;29;20297;-69
2021/11/14 07:50:45;;;;;;;6.00;3.50;;;;;;;1.90;73.27;102713.63;4793682;29;20280;-71
2021/11/14 07:53:14;;;;;;;8.37;3.73;;;;;;;1.86;73.88;102723.38;4809719;29;20131;-73
2021/11/14 07:55:39;;;;;;;5.23;3.43;;;;;;;1.75;74.24;102715.94;4808131;29;20077;-70
2021/11/14 07:58:06;;;;;;;7.47;4.33;;;;;;;1.61;74.53;102691.09;4808866;29;20454;-68
2021/11/14 08:00:34;;;;;;;4.17;3.30;;;;;;;1.74;74.62;102708.97;4808648;29;20035;-72
2021/11/14 08:03:00;;;;;;;6.93;3.42;;;;;;;1.78;74.11;102720.19;4794856;29;20290;-73
2021/11/14 08:05:28;;;;;;;4.60;3.27;;;;;;;1.66;74.41;102704.88;4793069;29;20039;-72
2021/11/14 08:07:55;;;;;;;7.03;3.90;;;;;;;1.67;74.12;102712.72;4808287;29;20380;-71
2021/11/14 08:10:21;;;;;;;6.17;3.30;;;;;;;1.64;74.44;102717.22;4791529;29;20050;-73
2021/11/14 08:12:47;;;;;;;5.77;3.20;;;;;;;1.49;74.40;102701.16;4808012;29;20359;-73
2021/11/14 08:15:14;;;;;;;5.20;3.13;;;;;;;1.63;73.63;102733.91;4807569;29;20284;-76
2021/11/14 08:17:40;;;;;;;3.33;3.03;;;;;;;1.53;73.46;102718.50;4791682;29;20418;-75
2021/11/14 08:20:08;;;;;;;5.20;3.20;;;;;;;1.64;73.15;102731.22;4810000;29;20284;-73
2021/11/14 08:22:34;;;;;;;4.63;3.07;;;;;;;1.71;72.86;102734.47;4808248;29;20325;-73
2021/11/14 08:25:01;;;;;;;3.00;2.70;;;;;;;1.71;71.67;102739.72;4807193;29;20315;-73
2021/11/14 08:27:31;;;;;;;7.67;3.43;;;;;;;1.79;71.41;102733.28;4790671;29;20416;-72
2021/11/14 08:29:59;;;;;;;5.00;2.73;;;;;;;1.86;71.03;102733.91;4807343;29;20423;-72
2021/11/14 08:32:26;;;;;;;6.87;2.63;;;;;;;1.87;70.17;102740.88;4807249;29;20288;-73
2021/11/14 08:34:52;;;;;;;3.63;2.47;;;;;;;1.79;70.40;102751.66;4807919;29;20276;-73
2021/11/14 08:37:19;;;;;;;3.30;2.57;;;;;;;1.86;70.52;102762.78;4808673;29;20272;-72
2021/11/14 08:39:49;;;;;;;4.90;2.70;;;;;;;1.88;70.79;102766.22;4809591;29;20341;-71
2021/11/14 08:42:14;;;;;;;3.60;2.20;;;;;;;1.94;70.59;102767.75;4806992;29;20319;-74
2021/11/14 08:44:41;;;;;;;5.43;3.30;;;;;;;1.99;70.33;102764.03;4776153;29;20319;-73
2021/11/14 08:47:07;;;;;;;5.97;2.47;;;;;;;1.94;70.59;102754.63;4809061;29;20346;-71
2021/11/14 08:49:39;;;;;;;3.45;3.15;;;;;;;1.48;70.30;102691.56;4808929;29;20388;-74
2021/11/14 08:52:06;;;;;;;13.83;3.03;;;;;;;2.04;70.44;102767.38;4791941;29;20039;-73
2021/11/14 08:54:56;;;;;;;3.57;2.63;;;;;;;2.17;70.21;102770.38;4808493;29;20303;-73
2021/11/14 08:57:24;;;;;;;3.87;2.90;;;;;;;2.17;69.95;102755.44;4809344;29;20395;-74
2021/11/14 08:59:50;;;;;;;3.37;2.20;;;;;;;2.06;69.98;102759.41;4808149;29;20827;-73
2021/11/14 09:02:16;;;;;;;3.60;2.30;;;;;;;2.14;70.23;102776.59;4809091;29;20121;-73
2021/11/14 09:04:42;;;;;;;4.27;3.23;;;;;;;2.04;70.13;102764.75;4809358;29;20295;-73
2021/11/14 09:07:08;;;;;;;5.43;2.77;;;;;;;2.03;69.66;102768.28;4791646;29;20280;-73
2021/11/14 09:09:35;;;;;;;4.33;2.30;;;;;;;1.88;69.25;102758.34;4807451;29;20050;-72
2021/11/14 09:12:00;;;;;;;3.83;2.50;;;;;;;1.86;69.56;102766.28;4807438;29;20272;-73
2021/11/14 09:14:26;;;;;;;8.67;2.27;;;;;;;1.82;69.29;102779.59;4807148;29;20784;-73
2021/11/14 09:16:53;;;;;;;2.90;1.83;;;;;;;1.63;69.79;102763.66;4790878;29;20081;-72
2021/11/14 09:19:20;;;;;;;2.57;2.20;;;;;;;1.62;69.56;102779.47;4806385;29;20068;-72
2021/11/14 09:21:47;;;;;;;5.37;1.93;;;;;;;1.52;70.19;102782.44;4806203;29;20372;-72
2021/11/14 09:24:13;;;;;;;5.53;2.00;;;;;;;1.46;70.77;102789.69;4813644;29;20264;-74
2021/11/14 09:26:39;;;;;;;2.47;2.07;;;;;;;1.42;70.35;102791.53;4808426;29;20284;-73
2021/11/14 09:29:06;;;;;;;3.87;2.10;;;;;;;1.42;70.45;102775.78;4806487;29;20312;-69
2021/11/14 09:32:03;;;;;;;3.50;2.30;;;;;;;1.78;69.42;102778.00;4794585;29;20054;-71
2021/11/14 09:34:32;;;;;;;3.73;2.33;;;;;;;1.94;67.94;102773.88;4806527;29;20288;-73
2021/11/14 09:36:57;;;;;;;2.20;1.57;;;;;;;1.95;67.16;102778.22;4790094;29;20284;-73
2021/11/14 09:39:23;;;;;;;5.07;2.10;;;;;;;1.91;67.56;102741.59;4774804;29;20035;-72
2021/11/14 09:41:50;;;;;;;3.93;2.30;;;;;;;2.53;66.66;102777.72;4805878;29;20419;-72
2021/11/14 09:44:19;;;;;;;3.73;2.03;;;;;;;2.53;65.48;102768.06;4789952;29;20081;-70
2021/11/14 09:46:52;;;;;;;3.22;2.17;;;;;;;2.49;66.25;102780.47;4805492;29;20649;-71
2021/11/14 09:49:28;;;;;;;1.93;1.73;;;;;;;2.30;65.56;102765.47;4805733;29;20050;-73
2021/11/14 09:51:57;;;;;;;5.70;2.20;;;;;;;2.28;65.71;102785.72;4805639;29;20308;-74
2021/11/14 09:54:27;;;;;;;2.47;1.90;;;;;;;2.15;65.84;102772.19;4805654;29;20301;-71
2021/11/14 09:56:54;;;;;;;;;;;;;;;2.37;65.69;102806.41;4806860;29;20342;-72
2021/11/14 09:59:24;;;;;;;5.23;2.03;;;;;;;2.36;65.57;102809.97;4806148;29;19932;-74
2021/11/14 10:01:52;;;;;;;2.43;1.80;;;;;;;2.40;65.04;102816.81;4807571;29;20268;-75
2021/11/14 10:04:19;;;;;;;3.50;1.50;;;;;;;2.17;65.66;102800.13;4806304;29;20295;-77
2021/11/14 10:07:06;;;;;;;3.80;1.83;;;;;;;2.21;65.74;102819.28;4805449;29;20276;-75
2021/11/14 10:09:38;;;;;;;2.70;2.20;;;;;;;2.18;65.39;102808.88;4805570;29;20334;-70
2021/11/14 10:12:18;;;;;;;4.93;1.40;;;;;;;2.32;65.08;102832.88;4805265;29;20284;-73
2021/11/14 10:14:45;;;;;;;4.50;1.73;;;;;;;2.35;65.15;102829.28;4774277;29;20312;-70
2021/11/14 10:17:23;;;;;;;2.50;1.87;;;;;;;2.39;64.59;102828.25;4790211;29;20284;-74
2021/11/14 10:19:58;;;;;;;2.10;1.90;;;;;;;2.42;64.71;102833.38;4805811;29;20281;-72
2021/11/14 10:22:24;;;;;;;6.70;2.07;;;;;;;2.40;64.63;102840.47;4805536;29;20042;-71
2021/11/14 10:24:49;;;;;;;8.80;2.10;;;;;;;2.44;64.52;102839.44;4805620;29;20799;-73
2021/11/14 10:27:17;;;;;;;4.97;2.13;;;;;;;2.40;64.25;102829.94;4805204;29;20113;-72
2021/11/14 10:29:48;;;;;;;1.73;1.50;;;;;;;2.48;63.62;102848.91;4805791;29;20415;-73
2021/11/14 10:32:15;;;;;;;2.97;1.60;;;;;;;2.34;63.76;102838.09;4805679;29;20773;-71
2021/11/14 10:34:50;;;;;;;3.27;2.43;;;;;;;2.43;64.26;102859.63;4804856;29;20645;-71
2021/11/14 10:37:20;;;;;;;1.57;1.47;;;;;;;2.41;63.88;102853.56;4805094;29;20756;-72
2021/11/14 10:39:53;;;;;;;3.07;1.60;;;;;;;2.37;63.93;102856.38;4804840;29;20319;-71
2021/11/14 10:42:19;;;;;;;4.27;2.00;;;;;;;2.17;64.87;102829.06;4805220;29;20345;-70
2021/11/14 10:44:50;;;;;;;2.27;1.40;;;;;;;2.28;64.35;102827.78;4792808;29;20284;-70
2021/11/14 10:47:22;;;;;;;2.60;1.63;;;;;;;2.20;64.29;102827.22;4809235;29;20260;-72
2021/11/14 10:49:53;;;;;;;1.90;1.50;;;;;;;2.10;63.80;102851.22;4804967;29;20361;-73
2021/11/14 10:52:20;;;;;;;2.77;2.00;;;;;;;1.97;64.22;102842.06;4804702;29;20337;-74
2021/11/14 10:55:08;;;;;;;3.60;1.53;;;;;;;1.96;63.78;102843.00;4804827;29;20767;-73
2021/11/14 10:57:37;;;;;;;2.90;1.50;;;;;;;1.95;64.61;102838.66;4805049;29;20300;-75
2021/11/14 11:00:11;;;;;;;5.35;2.20;;;;;;;2.05;63.69;102849.69;4805362;29;20337;-77
2021/11/14 11:02:44;;;;;;;3.53;1.50;;;;;;;2.18;63.49;102864.09;4805368;29;20051;-73
2021/11/14 11:05:17;;;;;;;2.00;1.80;;;;;;;2.11;63.43;102860.84;4805921;29;20288;-69
2021/11/14 11:07:56;;;;;;;1.73;1.50;;;;;;;2.13;63.02;102864.25;4805594;29;20308;-72
2021/11/14 11:10:29;;;;;;;4.87;1.87;;;;;;;2.01;63.88;102866.47;4804677;29;20296;-74
2021/11/14 11:12:55;;;;;;;5.13;3.23;;;;;;;2.02;64.08;102862.91;4788574;29;20296;-73
2021/11/14 11:15:21;;;;;;;3.80;2.33;;;;;;;2.04;64.13;102869.88;4788599;29;20288;-74
2021/11/14 11:17:51;;;;;;;4.03;2.00;;;;;;;1.91;63.76;102847.56;4806669;29;20038;-70
2021/11/14 11:20:21;;;;;;;8.17;2.10;;;;;;;2.06;63.72;102878.56;4808465;29;20046;-74
2021/11/14 11:22:46;;;;;;;4.03;2.63;;;;;;;2.04;63.93;102885.63;4808291;29;20279;-71
2021/11/14 11:25:12;;;;;;;2.73;1.67;;;;;;;2.03;64.41;102883.91;4808616;29;20272;-73
2021/11/14 11:27:39;;;;;;;1.87;1.60;;;;;;;1.97;64.26;102886.75;4807956;29;20147;-72
2021/11/14 11:30:09;;;;;;;2.70;1.90;;;;;;;1.82;64.39;102871.56;4807961;29;20427;-75
2021/11/14 11:32:35;;;;;;;2.80;1.90;;;;;;;1.85;64.65;102877.53;4808275;29;20784;-75
2021/11/14 11:35:01;;;;;;;2.53;1.60;;;;;;;1.91;64.77;102894.84;4808528;29;20298;-78
2021/11/14 11:37:28;;;;;;;4.70;1.60;;;;;;;1.37;65.30;102813.59;4791408;29;20038;-72
2021/11/14 11:39:59;;;;;;;3.20;1.60;;;;;;;1.82;65.19;102903.06;4808020;29;20639;-79